Time;durP1;ratioP1;P1;durP2;ratioP2;P2;SDS_P1;SDS_P2;PMS_P1;PMS_P2;Temp;Humidity;BMP_temperature;BMP_pressure;BME280_temperature;BME280_humidity;BME280_pressure;Samples;Min_cycle;Max_cycle;Signal;HPM_P1;HPM_P2
2021/10/24 00:02:18;;;;;;;11.05;5.55;;;;;;;6.43;71.24;97744.13;4992209;28;20144;-74
2021/10/24 00:04:45;;;;;;;9.57;5.35;;;;;;;6.41;69.76;97736.50;4992172;28;20563;-73
2021/10/24 00:07:13;;;;;;;7.50;4.97;;;;;;;6.43;69.64;97744.13;4992519;28;20050;-73
2021/10/24 00:09:40;;;;;;;9.25;5.63;;;;;;;6.45;71.38;97747.41;4992106;28;20504;-73
2021/10/24 00:12:09;;;;;;;9.43;5.32;;;;;;;6.44;71.36;97736.25;4992178;28;20046;-74
2021/10/24 00:14:37;;;;;;;6.85;5.05;;;;;;;6.38;68.80;97736.75;4992263;28;20046;-74
2021/10/24 00:17:04;;;;;;;6.80;4.65;;;;;;;6.31;68.13;97740.81;4992543;28;20058;-74
2021/10/24 00:19:33;;;;;;;7.13;4.40;;;;;;;6.25;67.74;97736.94;4992130;28;20053;-74
2021/10/24 00:22:02;;;;;;;9.02;5.18;;;;;;;6.24;68.91;97739.66;4992253;28;20050;-74
2021/10/24 00:24:29;;;;;;;7.85;3.70;;;;;;;6.25;67.43;97736.13;4992085;28;20050;-74
2021/10/24 00:26:57;;;;;;;7.22;3.83;;;;;;;6.15;67.78;97734.28;4992513;28;20058;-74
2021/10/24 00:29:25;;;;;;;7.63;4.80;;;;;;;6.16;68.69;97740.28;4991616;28;20516;-74
2021/10/24 00:31:53;;;;;;;5.50;3.95;;;;;;;6.20;71.12;97733.91;4992217;28;20513;-73
2021/10/24 00:34:20;;;;;;;6.47;4.55;;;;;;;6.29;71.38;97737.50;4992277;28;20505;-74
2021/10/24 00:36:48;;;;;;;7.53;3.58;;;;;;;6.33;68.69;97738.91;4992249;28;20061;-74
2021/10/24 00:39:15;;;;;;;7.30;5.00;;;;;;;6.33;70.24;97723.34;4991955;28;20506;-74
2021/10/24 00:41:45;;;;;;;6.53;4.47;;;;;;;6.38;71.47;97736.75;4992031;28;20149;-73
2021/10/24 00:44:21;;;;;;;7.78;3.97;;;;;;;6.36;67.85;97733.47;4994416;28;20109;-74
2021/10/24 00:46:51;;;;;;;5.85;3.92;;;;;;;6.36;71.49;97731.72;4995754;28;20058;-73
2021/10/24 00:49:20;;;;;;;8.23;4.68;;;;;;;6.42;71.99;97730.38;4995533;28;20050;-74
2021/10/24 00:51:47;;;;;;;4.45;3.40;;;;;;;6.43;69.24;97733.75;4995472;28;20058;-73
2021/10/24 00:54:16;;;;;;;6.50;3.63;;;;;;;6.36;68.20;97734.31;4995373;28;20050;-73
2021/10/24 00:56:44;;;;;;;6.35;3.67;;;;;;;6.31;69.31;97730.44;4995785;28;20591;-74
2021/10/24 00:59:12;;;;;;;5.38;3.58;;;;;;;6.30;69.93;97723.63;4995277;28;20050;-74
2021/10/24 01:01:40;;;;;;;5.95;3.90;;;;;;;6.29;68.13;97719.38;4995606;28;20057;-73
2021/10/24 01:04:09;;;;;;;6.82;3.58;;;;;;;6.31;69.81;97720.06;4995379;28;20061;-73
2021/10/24 01:06:38;;;;;;;4.75;3.97;;;;;;;6.36;71.02;97720.50;4995421;28;20050;-74
2021/10/24 01:09:08;;;;;;;5.10;3.45;;;;;;;6.39;70.24;97721.06;4995085;28;20058;-74
2021/10/24 01:11:36;;;;;;;6.93;3.22;;;;;;;6.38;68.93;97710.84;4995949;28;20058;-74
2021/10/24 01:14:03;;;;;;;6.68;3.25;;;;;;;6.37;69.01;97704.00;4995539;28;20050;-74
2021/10/24 01:16:34;;;;;;;5.75;3.13;;;;;;;6.35;66.52;97701.53;4995343;28;20046;-74
2021/10/24 01:19:02;;;;;;;5.82;3.38;;;;;;;6.33;66.34;97697.44;4995189;28;20496;-73
2021/10/24 01:21:32;;;;;;;6.00;2.85;;;;;;;6.25;65.16;97695.47;4995042;28;20053;-74
2021/10/24 01:24:00;;;;;;;5.72;2.90;;;;;;;6.15;65.61;97695.44;4995107;28;20432;-73
2021/10/24 01:26:28;;;;;;;5.18;3.05;;;;;;;6.16;66.79;97696.25;4995098;28;20105;-73
2021/10/24 01:28:56;;;;;;;8.23;3.17;;;;;;;6.16;66.59;97696.25;4994546;28;20058;-74
2021/10/24 01:31:24;;;;;;;5.05;2.97;;;;;;;6.19;66.92;97691.66;4994880;28;20050;-74
2021/10/24 01:33:52;;;;;;;5.32;2.58;;;;;;;6.18;67.27;97694.34;4994833;28;20054;-74
2021/10/24 01:36:19;;;;;;;6.15;3.10;;;;;;;6.18;66.65;97684.81;4995023;28;20050;-74
2021/10/24 01:38:50;;;;;;;8.35;3.63;;;;;;;6.17;66.29;97690.94;4994655;28;20425;-73
2021/10/24 01:41:19;;;;;;;6.38;2.70;;;;;;;6.15;64.83;97674.72;4994688;28;20096;-74
2021/10/24 01:43:47;;;;;;;4.32;2.97;;;;;;;6.15;67.07;97677.28;4994649;28;20563;-74
2021/10/24 01:46:16;;;;;;;5.35;3.10;;;;;;;6.16;68.31;97663.38;4994321;28;20050;-74
2021/10/24 01:48:44;;;;;;;8.45;3.00;;;;;;;6.13;65.61;97670.59;4994426;28;20054;-74
2021/10/24 01:51:12;;;;;;;5.93;2.90;;;;;;;6.02;64.88;97655.94;4994643;28;20077;-74
2021/10/24 01:53:42;;;;;;;4.93;3.40;;;;;;;5.98;65.53;97659.75;4994333;28;20062;-74
2021/10/24 01:56:11;;;;;;;3.83;2.80;;;;;;;5.95;64.49;97657.41;4994441;28;20057;-73
2021/10/24 01:58:39;;;;;;;6.00;3.20;;;;;;;5.91;64.57;97656.00;4993937;28;20509;-73
2021/10/24 02:01:07;;;;;;;6.28;3.10;;;;;;;5.87;64.82;97644.25;4994198;28;20058;-74
2021/10/24 02:03:36;;;;;;;5.85;2.80;;;;;;;5.83;64.55;97641.06;4994357;28;20050;-74
2021/10/24 02:06:04;;;;;;;5.80;3.25;;;;;;;5.84;64.30;97647.06;4994318;28;20089;-74
2021/10/24 02:08:32;;;;;;;6.50;2.88;;;;;;;5.79;64.47;97642.25;4994093;28;20054;-73
2021/10/24 02:11:00;;;;;;;4.30;2.72;;;;;;;5.76;65.29;97629.59;4994313;28;20053;-74
2021/10/24 02:13:29;;;;;;;5.78;3.08;;;;;;;5.74;64.75;97632.28;4993829;28;20054;-74
2021/10/24 02:15:56;;;;;;;2.95;2.53;;;;;;;5.70;65.29;97628.31;4994052;28;20050;-73
2021/10/24 02:18:24;;;;;;;7.15;2.63;;;;;;;5.67;64.64;97622.56;4993904;28;20046;-74
2021/10/24 02:20:51;;;;;;;5.82;2.92;;;;;;;5.60;64.58;97619.66;4993882;28;20046;-73
2021/10/24 02:23:19;;;;;;;6.38;3.70;;;;;;;5.57;64.22;97622.50;4993702;28;20058;-74
2021/10/24 02:25:46;;;;;;;5.65;2.83;;;;;;;5.52;64.30;97619.47;4993718;28;20496;-74
2021/10/24 02:28:14;;;;;;;5.07;2.90;;;;;;;5.50;66.51;97622.16;4994234;28;20054;-74
2021/10/24 02:30:43;;;;;;;5.40;3.05;;;;;;;5.48;64.74;97618.06;4993754;28;20046;-73
2021/10/24 02:33:10;;;;;;;6.38;2.95;;;;;;;5.44;64.44;97612.31;4993823;28;20053;-73
2021/10/24 02:35:39;;;;;;;4.40;2.70;;;;;;;5.43;64.40;97626.22;4993726;28;20046;-73
2021/10/24 02:38:07;;;;;;;5.82;3.00;;;;;;;5.41;64.29;97627.28;4993737;28;20050;-74
2021/10/24 02:40:34;;;;;;;4.13;2.58;;;;;;;5.38;64.37;97623.19;4993297;28;20050;-74
2021/10/24 02:43:02;;;;;;;7.50;2.85;;;;;;;5.38;64.44;97623.19;4993514;28;20054;-73
2021/10/24 02:45:30;;;;;;;5.43;2.47;;;;;;;5.36;64.18;97625.06;4993669;28;20046;-73
2021/10/24 02:47:59;;;;;;;4.32;2.53;;;;;;;5.35;65.69;97613.06;4993507;28;20069;-73
2021/10/24 02:50:26;;;;;;;6.47;2.80;;;;;;;5.40;65.26;97617.88;4993190;28;20065;-73
2021/10/24 02:52:54;;;;;;;4.82;2.58;;;;;;;5.42;64.90;97614.19;4993282;28;20069;-74
2021/10/24 02:55:21;;;;;;;7.47;3.47;;;;;;;5.48;65.30;97612.91;4993174;28;20424;-74
2021/10/24 02:57:49;;;;;;;5.22;2.78;;;;;;;5.51;64.58;97608.31;4993623;28;20058;-73
2021/10/24 03:00:16;;;;;;;4.45;2.63;;;;;;;5.55;64.66;97603.69;4993092;28;20050;-73
2021/10/24 03:02:44;;;;;;;7.20;3.00;;;;;;;5.58;64.14;97603.44;4993178;28;20050;-73
2021/10/24 03:05:13;;;;;;;4.57;3.33;;;;;;;5.60;64.19;97604.13;4993320;28;20064;-73
2021/10/24 03:07:41;;;;;;;3.33;2.50;;;;;;;5.63;64.65;97609.06;4992614;28;20050;-74
2021/10/24 03:10:09;;;;;;;7.50;3.03;;;;;;;5.68;64.96;97598.31;4992854;28;20058;-73
2021/10/24 03:12:36;;;;;;;5.07;2.80;;;;;;;5.71;66.17;97598.91;4993949;28;20050;-73
2021/10/24 03:15:06;;;;;;;4.07;3.00;;;;;;;5.75;65.61;97596.84;5010271;28;20250;-73
2021/10/24 03:17:33;;;;;;;4.40;2.72;;;;;;;5.77;65.94;97597.56;5008583;28;20057;-72
2021/10/24 03:20:01;;;;;;;5.55;3.17;;;;;;;5.76;65.01;97601.91;5015550;28;20050;-73
2021/10/24 03:22:30;;;;;;;5.35;2.90;;;;;;;5.74;65.94;97601.22;5016631;28;20042;-72
2021/10/24 03:24:58;;;;;;;4.93;2.65;;;;;;;5.72;64.91;97600.53;5015412;28;20050;-73
2021/10/24 03:27:25;;;;;;;5.55;2.78;;;;;;;5.72;65.00;97604.88;5013300;28;20054;-73
2021/10/24 03:29:53;;;;;;;6.13;2.95;;;;;;;5.73;65.70;97604.78;4993205;28;20539;-73
2021/10/24 03:32:21;;;;;;;4.68;2.50;;;;;;;5.73;64.87;97602.19;4993149;28;20058;-74
2021/10/24 03:34:49;;;;;;;4.20;2.50;;;;;;;5.71;64.40;97600.69;4992972;28;20042;-73
2021/10/24 03:37:16;;;;;;;2.80;2.30;;;;;;;5.68;63.92;97604.31;4993135;28;20054;-74
2021/10/24 03:39:45;;;;;;;6.35;2.58;;;;;;;5.69;63.99;97605.16;4992667;28;20047;-74
2021/10/24 03:42:13;;;;;;;5.47;2.72;;;;;;;5.69;64.96;97611.16;4992839;28;20054;-73
2021/10/24 03:44:40;;;;;;;6.38;3.05;;;;;;;5.66;63.73;97600.22;4996104;28;20500;-74
2021/10/24 03:47:08;;;;;;;4.18;2.72;;;;;;;5.63;64.04;97598.69;5010391;28;20068;-73
2021/10/24 03:49:36;;;;;;;5.82;2.78;;;;;;;5.62;63.68;97604.84;5015358;28;20054;-73
2021/10/24 03:52:03;;;;;;;5.72;2.97;;;;;;;5.56;63.00;97605.34;5016860;28;20074;-72
2021/10/24 03:54:31;;;;;;;4.97;2.88;;;;;;;5.52;63.21;97604.75;5015904;28;20057;-72
2021/10/24 03:57:00;;;;;;;6.45;2.72;;;;;;;5.49;62.98;97597.25;5011442;28;20062;-73
2021/10/24 03:59:28;;;;;;;8.13;3.22;;;;;;;5.47;63.19;97606.09;5003764;28;20073;-73
2021/10/24 04:01:55;;;;;;;10.07;3.58;;;;;;;5.45;63.41;97600.22;4993915;28;20061;-73
2021/10/24 04:04:23;;;;;;;4.82;2.70;;;;;;;5.42;63.38;97601.25;4993862;28;20054;-73
2021/10/24 04:06:50;;;;;;;5.00;3.20;;;;;;;5.40;64.05;97599.75;4993166;28;20074;-73
2021/10/24 04:09:18;;;;;;;5.15;3.30;;;;;;;5.36;63.24;97594.84;4992596;28;20523;-74
2021/10/24 04:11:45;;;;;;;4.78;2.90;;;;;;;5.33;63.34;97602.00;4992725;28;20082;-73
2021/10/24 04:14:14;;;;;;;5.05;2.70;;;;;;;5.29;63.22;97593.69;4992609;28;20057;-74
2021/10/24 04:16:41;;;;;;;5.47;2.72;;;;;;;5.27;63.30;97600.75;4992871;28;20053;-73
2021/10/24 04:19:09;;;;;;;6.45;2.60;;;;;;;5.24;63.19;97601.00;4994886;28;20515;-74
2021/10/24 04:21:36;;;;;;;4.93;2.55;;;;;;;5.21;63.51;97603.03;4996636;28;20100;-74
2021/10/24 04:24:04;;;;;;;9.55;2.58;;;;;;;5.20;63.52;97602.19;4996137;28;20054;-74
2021/10/24 04:26:32;;;;;;;5.43;2.60;;;;;;;5.16;63.54;97603.41;4996085;28;20046;-73
2021/10/24 04:28:59;;;;;;;7.45;4.15;;;;;;;5.14;63.49;97594.94;4995768;28;20046;-73
2021/10/24 04:31:28;;;;;;;5.38;2.60;;;;;;;5.12;64.13;97602.81;5014095;23;20042;-75
2021/10/24 04:33:57;;;;;;;7.57;3.38;;;;;;;5.11;64.69;97595.16;5018259;28;20074;-75
2021/10/24 04:36:24;;;;;;;3.17;2.83;;;;;;;5.12;65.34;97595.06;5012486;28;20054;-75
2021/10/24 04:38:52;;;;;;;5.68;2.40;;;;;;;5.14;64.61;97594.94;5015177;28;20042;-75
2021/10/24 04:41:20;;;;;;;8.75;3.47;;;;;;;5.15;64.08;97601.72;5021730;28;20514;-75
2021/10/24 04:43:48;;;;;;;6.05;3.42;;;;;;;5.14;64.52;97594.94;5016555;28;20054;-75
2021/10/24 04:46:15;;;;;;;6.13;3.10;;;;;;;5.12;64.70;97596.81;5015484;28;20053;-75
2021/10/24 04:48:44;;;;;;;5.00;3.13;;;;;;;5.14;65.67;97600.09;5001316;28;20054;-75
2021/10/24 04:51:11;;;;;;;4.32;2.58;;;;;;;5.16;65.16;97583.50;4995653;28;20843;-75
2021/10/24 04:53:39;;;;;;;6.22;2.55;;;;;;;5.13;64.33;97594.09;4995944;28;20073;-75
2021/10/24 04:56:07;;;;;;;5.57;3.05;;;;;;;5.11;64.99;97601.16;4995757;28;20142;-75
2021/10/24 04:58:34;;;;;;;4.53;3.25;;;;;;;5.06;64.23;97597.31;4995382;28;20058;-75
2021/10/24 05:01:02;;;;;;;6.43;3.25;;;;;;;5.00;64.65;97597.78;4995618;28;20061;-75
2021/10/24 05:03:30;;;;;;;6.95;3.28;;;;;;;4.94;64.37;97594.75;4995540;28;20484;-75
2021/10/24 05:05:59;;;;;;;4.43;2.95;;;;;;;4.95;65.26;97598.97;4992578;28;20101;-75
2021/10/24 05:08:27;;;;;;;5.47;2.63;;;;;;;4.98;64.78;97602.25;4994542;28;20054;-75
2021/10/24 05:10:54;;;;;;;3.42;3.13;;;;;;;4.97;65.26;97600.63;4994797;28;20057;-75
2021/10/24 05:13:22;;;;;;;5.90;2.92;;;;;;;5.00;65.96;97603.78;4995459;28;20050;-76
2021/10/24 05:15:49;;;;;;;5.97;4.22;;;;;;;5.02;65.13;97596.72;4995413;28;20062;-75
2021/10/24 05:18:17;;;;;;;5.18;3.22;;;;;;;5.04;65.02;97594.03;4995133;28;20054;-75
2021/10/24 05:20:45;;;;;;;5.97;3.58;;;;;;;5.04;64.88;97600.00;4995258;28;20054;-75
2021/10/24 05:23:13;;;;;;;5.28;3.00;;;;;;;5.03;65.26;97597.53;4995349;28;20069;-75
2021/10/24 05:25:54;;;;;;;6.60;3.47;;;;;;;5.06;65.41;97592.94;4995063;28;20053;-75
2021/10/24 05:28:21;;;;;;;6.50;2.88;;;;;;;5.03;65.08;97584.59;4994865;28;20054;-76
2021/10/24 05:30:49;;;;;;;8.60;3.45;;;;;;;5.04;66.09;97586.25;4994478;28;20456;-76
2021/10/24 05:33:17;;;;;;;6.55;3.35;;;;;;;5.10;65.41;97585.78;4995188;28;20060;-75
2021/10/24 05:35:44;;;;;;;7.03;3.20;;;;;;;5.06;64.90;97586.97;5000467;28;20061;-80
2021/10/24 05:38:13;;;;;;;5.32;3.30;;;;;;;4.99;64.93;97572.88;5018168;28;20034;-78
2021/10/24 05:40:41;;;;;;;6.35;3.53;;;;;;;4.96;65.15;97584.28;5013114;28;20082;-77
2021/10/24 05:43:08;;;;;;;7.13;3.08;;;;;;;4.93;64.88;97582.75;4991093;28;20130;-76
2021/10/24 05:45:36;;;;;;;7.40;3.72;;;;;;;4.88;64.90;97579.72;4976172;28;20054;-76
2021/10/24 05:48:04;;;;;;;6.45;3.50;;;;;;;4.85;65.19;97585.13;4983937;28;20069;-76
2021/10/24 05:50:32;;;;;;;8.10;4.38;;;;;;;4.83;65.44;97581.88;4997450;28;20042;-76
2021/10/24 05:52:59;;;;;;;4.82;3.28;;;;;;;4.81;65.38;97578.59;4981170;28;20050;-76
2021/10/24 05:55:28;;;;;;;5.63;3.45;;;;;;;4.78;65.62;97572.81;4975299;28;20417;-76
2021/10/24 05:57:56;;;;;;;6.10;3.35;;;;;;;4.79;65.57;97570.13;4975052;28;20477;-75
2021/10/24 06:00:23;;;;;;;6.55;3.85;;;;;;;4.76;66.05;97570.34;4974859;28;20106;-76
2021/10/24 06:02:51;;;;;;;5.82;3.17;;;;;;;4.73;66.05;97588.69;4975166;28;20465;-76
2021/10/24 06:05:19;;;;;;;6.47;3.15;;;;;;;4.67;65.86;97573.66;4975199;28;20137;-76
2021/10/24 06:07:48;;;;;;;7.30;3.70;;;;;;;4.63;66.25;97574.84;4974841;28;20050;-76
2021/10/24 06:10:17;;;;;;;7.43;4.18;;;;;;;4.58;66.09;97584.72;4974305;28;20501;-76
2021/10/24 06:12:51;;;;;;;7.68;3.55;;;;;;;4.52;66.30;97571.31;4975216;28;20496;-79
2021/10/24 06:15:21;;;;;;;5.22;3.55;;;;;;;4.50;66.44;97570.66;4987878;28;20054;-78
2021/10/24 06:17:50;;;;;;;7.18;3.65;;;;;;;4.53;66.52;97574.75;4995987;28;20050;-75
2021/10/24 06:20:22;;;;;;;8.48;3.83;;;;;;;4.50;66.29;97581.00;5001504;28;20088;-76
2021/10/24 06:22:50;;;;;;;8.32;4.00;;;;;;;4.50;66.67;97580.13;5004175;28;20056;-79
2021/10/24 06:25:19;;;;;;;7.10;3.60;;;;;;;4.49;66.66;97578.50;5008816;28;20139;-75
2021/10/24 06:27:48;;;;;;;7.85;3.92;;;;;;;4.47;67.04;97580.41;4999192;28;20057;-78
2021/10/24 06:30:18;;;;;;;7.55;4.13;;;;;;;4.47;67.19;97581.22;4994040;28;20050;-76
2021/10/24 06:32:45;;;;;;;9.02;4.57;;;;;;;4.45;66.88;97572.75;4994278;28;20087;-76
2021/10/24 06:35:13;;;;;;;5.82;3.72;;;;;;;4.45;67.44;97572.75;5005314;28;20054;-77
2021/10/24 06:37:42;;;;;;;10.02;4.50;;;;;;;4.49;67.49;97581.91;5012344;28;20045;-74
2021/10/24 06:40:12;;;;;;;7.00;4.43;;;;;;;4.60;67.18;97580.25;5009851;28;20118;-76
2021/10/24 06:42:39;;;;;;;6.03;3.80;;;;;;;4.71;66.90;97590.56;5003318;28;20440;-74
2021/10/24 06:45:10;;;;;;;7.70;3.67;;;;;;;4.81;66.98;97575.16;4994325;28;20065;-74
2021/10/24 06:47:38;;;;;;;5.57;3.50;;;;;;;4.92;66.52;97581.13;4993763;28;20042;-74
2021/10/24 06:50:07;;;;;;;6.50;3.15;;;;;;;5.06;66.41;97576.63;4993663;28;20058;-74
2021/10/24 06:52:34;;;;;;;8.07;4.05;;;;;;;5.23;66.06;97588.19;4993737;28;20059;-73
2021/10/24 06:55:02;;;;;;;7.85;3.95;;;;;;;5.40;65.76;97585.06;4993646;28;20085;-74
2021/10/24 06:57:30;;;;;;;5.28;4.10;;;;;;;5.54;65.65;97587.34;4993602;28;20504;-74
2021/10/24 06:59:57;;;;;;;5.60;4.35;;;;;;;5.67;66.26;97592.31;4993410;28;20057;-74
2021/10/24 07:02:27;;;;;;;9.93;4.32;;;;;;;5.82;65.05;97592.03;4993561;28;20047;-74
2021/10/24 07:04:54;;;;;;;7.28;3.70;;;;;;;5.94;64.85;97591.81;4993971;28;20140;-74
2021/10/24 07:07:23;;;;;;;6.82;5.10;;;;;;;6.06;64.46;97597.78;4993574;28;20054;-75
2021/10/24 07:09:51;;;;;;;8.48;4.05;;;;;;;6.17;64.44;97595.09;4993844;28;20042;-76
2021/10/24 07:12:18;;;;;;;7.15;4.13;;;;;;;6.28;64.06;97585.59;4993510;28;20058;-76
2021/10/24 07:14:46;;;;;;;7.47;4.22;;;;;;;6.35;63.99;97591.88;4993287;28;20054;-76
2021/10/24 07:17:13;;;;;;;6.88;4.15;;;;;;;6.46;64.26;97589.19;4988742;28;20053;-76
2021/10/24 07:19:42;;;;;;;6.80;4.10;;;;;;;6.57;63.53;97593.47;4973565;28;20043;-76
2021/10/24 07:22:10;;;;;;;6.97;3.58;;;;;;;6.65;63.08;97590.19;4966169;28;20055;-76
2021/10/24 07:24:37;;;;;;;5.57;3.75;;;;;;;6.67;62.94;97590.88;4973887;28;20059;-76
2021/10/24 07:27:05;;;;;;;7.75;3.63;;;;;;;6.69;62.93;97591.56;4973906;28;20142;-75
2021/10/24 07:29:33;;;;;;;6.90;3.88;;;;;;;6.73;62.59;97590.34;4973728;28;20051;-76
2021/10/24 07:32:02;;;;;;;6.32;3.67;;;;;;;6.84;62.80;97585.06;4973626;28;20081;-76
2021/10/24 07:34:29;;;;;;;6.13;3.85;;;;;;;6.96;62.58;97590.97;4978334;28;20038;-77
2021/10/24 07:36:58;;;;;;;8.38;4.55;;;;;;;7.04;61.89;97587.69;4991361;28;20055;-76
2021/10/24 07:39:26;;;;;;;5.70;4.10;;;;;;;7.09;61.79;97590.72;4995803;28;20042;-75
2021/10/24 07:41:53;;;;;;;7.55;4.85;;;;;;;7.22;61.68;97593.84;4999639;28;20639;-75
2021/10/24 07:44:21;;;;;;;6.30;3.50;;;;;;;7.37;61.27;97589.91;4993577;28;20054;-76
2021/10/24 07:46:53;;;;;;;5.25;4.18;;;;;;;7.53;61.02;97593.72;4993641;28;20061;-76
2021/10/24 07:49:22;;;;;;;5.60;3.67;;;;;;;7.68;60.60;97591.50;4993663;28;20505;-76
2021/10/24 07:51:49;;;;;;;6.93;3.95;;;;;;;7.86;60.53;97594.22;4993352;28;20050;-76
2021/10/24 07:54:18;;;;;;;6.38;4.38;;;;;;;8.10;60.06;97599.75;4997342;28;20050;-76
2021/10/24 07:56:46;;;;;;;9.30;4.60;;;;;;;8.39;59.33;97597.03;4997235;28;20073;-76
2021/10/24 07:59:13;;;;;;;4.53;4.00;;;;;;;8.65;58.84;97601.59;4996909;28;20055;-75
2021/10/24 08:01:42;;;;;;;7.95;3.97;;;;;;;8.81;58.14;97594.00;4996652;28;20061;-76
2021/10/24 08:04:10;;;;;;;8.85;4.57;;;;;;;8.92;57.76;97594.75;4997004;28;20061;-76
2021/10/24 08:06:38;;;;;;;8.93;4.00;;;;;;;9.00;57.39;97590.44;4996978;28;20050;-76
2021/10/24 08:09:07;;;;;;;6.63;4.55;;;;;;;9.17;57.09;97590.63;5006084;28;20046;-76
2021/10/24 08:11:37;;;;;;;5.70;3.95;;;;;;;9.40;56.97;97591.81;5017241;28;20054;-77
2021/10/24 08:14:06;;;;;;;7.32;4.45;;;;;;;9.70;57.23;97590.56;5016664;28;20050;-76
2021/10/24 08:16:33;;;;;;;6.28;4.50;;;;;;;9.99;56.45;97591.25;5002545;28;20050;-76
2021/10/24 08:19:07;;;;;;;8.13;4.03;;;;;;;10.22;55.45;97592.34;4979272;28;20053;-73
2021/10/24 08:21:34;;;;;;;3.58;3.25;;;;;;;10.39;54.58;97582.06;4978330;28;20523;-73
2021/10/24 08:24:03;;;;;;;5.93;4.18;;;;;;;10.57;54.39;97589.78;4977636;28;20047;-74
2021/10/24 08:26:31;;;;;;;6.20;3.65;;;;;;;10.71;53.61;97590.00;4981119;28;20055;-74
2021/10/24 08:29:00;;;;;;;5.63;3.67;;;;;;;10.88;53.64;97588.25;4980016;28;20051;-74
2021/10/24 08:31:29;;;;;;;5.85;4.32;;;;;;;11.05;52.88;97583.06;4980046;28;20066;-74
2021/10/24 08:33:58;;;;;;;7.43;3.92;;;;;;;11.18;52.13;97596.47;4980811;28;20051;-73
2021/10/24 08:36:28;;;;;;;7.07;4.00;;;;;;;11.29;51.64;97600.56;4979954;28;20066;-74
2021/10/24 08:38:57;;;;;;;6.10;4.30;;;;;;;11.36;51.31;97593.72;4982294;28;20519;-74
2021/10/24 08:41:28;;;;;;;4.95;4.07;;;;;;;11.44;51.16;97592.94;4999159;28;20146;-73
2021/10/24 08:43:58;;;;;;;6.05;4.38;;;;;;;11.55;50.91;97596.03;5000437;28;20050;-74
2021/10/24 08:46:27;;;;;;;6.00;3.17;;;;;;;11.68;50.74;97600.75;4999169;28;20053;-75
2021/10/24 08:48:56;;;;;;;5.15;3.15;;;;;;;11.83;50.62;97590.47;4999134;28;20047;-75
2021/10/24 08:51:27;;;;;;;6.47;3.90;;;;;;;11.91;49.73;97600.09;4999384;28;20064;-75
2021/10/24 08:53:55;;;;;;;4.68;3.40;;;;;;;12.03;50.16;97596.19;4998861;28;20046;-75
2021/10/24 08:56:25;;;;;;;7.53;3.92;;;;;;;12.18;49.36;97601.56;4999248;28;20046;-75
2021/10/24 08:58:53;;;;;;;9.10;3.80;;;;;;;12.42;49.32;97602.44;5013024;28;20516;-75
2021/10/24 09:01:21;;;;;;;7.50;4.05;;;;;;;12.62;49.28;97598.47;5011610;28;20050;-75
2021/10/24 09:04:07;;;;;;;6.68;3.83;;;;;;;12.80;48.04;97594.78;4996944;28;20060;-75
2021/10/24 09:06:53;;;;;;;5.45;3.45;;;;;;;13.00;48.64;97601.22;4996796;28;20759;-75
2021/10/24 09:09:22;;;;;;;6.75;4.00;;;;;;;13.11;49.85;97598.19;5005752;28;20057;-75
2021/10/24 09:11:59;;;;;;;5.03;3.80;;;;;;;13.30;49.65;97589.13;5013546;28;20056;-75
2021/10/24 09:14:38;;;;;;;5.85;3.25;;;;;;;13.48;46.59;97588.00;4999256;28;20050;-75
2021/10/24 09:17:07;;;;;;;6.65;3.45;;;;;;;13.53;46.54;97593.53;4995035;28;20055;-76
2021/10/24 09:19:37;;;;;;;3.33;2.67;;;;;;;13.52;46.03;97579.59;4979243;28;20066;-75
2021/10/24 09:22:27;;;;;;;4.22;2.67;;;;;;;13.59;45.19;97583.16;4979496;28;20066;-76
2021/10/24 09:25:13;;;;;;;4.97;2.90;;;;;;;13.68;46.54;97588.31;4975179;28;20058;-76
2021/10/24 09:27:46;;;;;;;5.25;3.30;;;;;;;13.80;45.18;97584.31;4979856;28;20055;-76
2021/10/24 09:30:16;;;;;;;3.60;2.45;;;;;;;13.91;46.18;97589.09;4979126;28;20054;-77
2021/10/24 09:32:55;;;;;;;3.50;2.65;;;;;;;14.05;45.51;97586.69;4979002;28;20397;-76
2021/10/24 09:35:27;;;;;;;3.97;2.97;;;;;;;14.23;44.82;97581.88;4979079;28;20051;-76
2021/10/24 09:37:56;;;;;;;6.13;3.10;;;;;;;14.47;44.55;97588.66;4980218;28;20062;-77
2021/10/24 09:40:29;;;;;;;3.17;2.38;;;;;;;14.81;46.12;97595.19;4990146;28;20050;-77
2021/10/24 09:43:09;;;;;;;4.57;2.60;;;;;;;15.29;43.22;97586.81;4997339;28;20046;-78
2021/10/24 09:45:37;;;;;;;3.38;2.53;;;;;;;15.82;42.79;97577.59;4999774;28;20077;-77
2021/10/24 09:48:09;;;;;;;6.05;2.55;;;;;;;16.64;39.39;97583.16;4999110;28;20043;-75
2021/10/24 09:50:39;;;;;;;;;;;;;;;17.50;40.51;97587.88;4999788;28;20420;-76
2021/10/24 09:53:12;;;;;;;3.67;2.38;;;;;;;17.49;37.51;97576.53;4999054;28;20372;-76
2021/10/24 09:55:41;;;;;;;3.28;2.53;;;;;;;17.21;38.50;97586.44;4999366;28;20489;-76
2021/10/24 09:58:09;;;;;;;2.53;2.25;;;;;;;17.05;40.69;97587.56;4999019;28;20061;-78
2021/10/24 10:00:38;;;;;;;3.10;2.22;;;;;;;17.14;38.66;97591.66;4998299;28;20065;-77
2021/10/24 10:03:07;;;;;;;2.95;2.53;;;;;;;17.46;37.97;97584.00;4998107;28;20137;-77
2021/10/24 10:05:37;;;;;;;3.65;2.08;;;;;;;18.22;36.58;97577.53;4997011;28;20050;-77
2021/10/24 10:08:07;;;;;;;3.30;2.38;;;;;;;19.09;34.86;97578.06;4996303;28;20489;-78
2021/10/24 10:10:38;;;;;;;3.33;2.20;;;;;;;19.55;35.09;97575.09;4995762;28;20401;-77
2021/10/24 10:13:10;;;;;;;2.83;1.98;;;;;;;19.72;33.39;97571.94;4994870;28;20046;-77
2021/10/24 10:15:41;;;;;;;4.32;2.75;;;;;;;19.54;32.92;97572.66;4994727;28;20523;-77
2021/10/24 10:18:09;;;;;;;3.25;2.30;;;;;;;19.31;33.21;97571.41;4983186;28;20058;-79
2021/10/24 10:20:45;;;;;;;2.83;1.90;;;;;;;19.11;33.27;97573.34;4975035;28;20066;-77
2021/10/24 10:23:16;;;;;;;4.25;2.10;;;;;;;19.24;34.48;97581.22;4975798;28;20066;-77
2021/10/24 10:25:45;;;;;;;2.42;2.22;;;;;;;19.37;33.06;97569.72;4975320;28;20523;-76
2021/10/24 10:28:15;;;;;;;2.67;2.22;;;;;;;19.43;32.46;97562.78;4974616;28;20055;-76
2021/10/24 10:30:44;;;;;;;2.13;1.63;;;;;;;19.41;32.89;97564.81;4974379;28;20050;-76
2021/10/24 10:33:36;;;;;;;2.83;2.28;;;;;;;19.56;31.65;97563.47;5003039;23;20053;-76
2021/10/24 10:36:06;;;;;;;4.38;2.60;;;;;;;19.81;31.92;97561.88;4984027;28;20060;-76
2021/10/24 10:38:37;;;;;;;6.72;6.03;;;;;;;20.02;32.21;97564.13;4993756;28;20523;-76
2021/10/24 10:41:05;;;;;;;3.75;2.40;;;;;;;20.32;31.35;97556.28;4993691;28;20105;-76
2021/10/24 10:43:33;;;;;;;2.92;2.22;;;;;;;20.54;30.80;97561.97;4993710;28;20054;-76
2021/10/24 10:46:03;;;;;;;3.42;1.65;;;;;;;20.85;31.17;97564.69;4993995;28;20077;-76
2021/10/24 10:48:35;;;;;;;1.88;1.75;;;;;;;21.17;29.79;97557.31;4993347;28;20133;-77
2021/10/24 10:51:10;;;;;;;3.78;1.90;;;;;;;21.57;30.47;97552.25;4993565;28;20054;-76
2021/10/24 10:53:54;;;;;;;3.60;1.73;;;;;;;21.95;28.98;97543.03;4993603;28;20058;-76
2021/10/24 10:56:24;;;;;;;4.47;1.65;;;;;;;22.29;28.43;97542.47;4993719;28;20133;-77
2021/10/24 10:58:52;;;;;;;2.63;1.73;;;;;;;22.58;28.76;97540.66;5002547;28;20054;-77
2021/10/24 11:01:31;;;;;;;4.38;2.80;;;;;;;22.83;27.16;97548.34;5012110;28;20050;-76
2021/10/24 11:04:12;;;;;;;3.15;2.05;;;;;;;22.80;26.56;97546.94;5011051;28;20070;-77
2021/10/24 11:07:00;;;;;;;1.75;1.45;;;;;;;22.96;26.42;97534.75;4994868;28;20088;-76
2021/10/24 11:09:47;;;;;;;2.20;1.67;;;;;;;23.34;26.59;97537.81;4993215;28;20523;-77
2021/10/24 11:12:40;;;;;;;1.77;1.50;;;;;;;23.82;26.01;97539.16;4993409;28;20101;-78
2021/10/24 11:15:10;;;;;;;1.88;1.60;;;;;;;24.25;26.54;97538.41;4992985;28;20057;-78
2021/10/24 11:17:40;;;;;;;1.42;1.33;;;;;;;24.76;25.09;97529.44;4977407;28;20509;-78
2021/10/24 11:20:19;;;;;;;3.55;1.70;;;;;;;25.26;25.20;97534.53;4954035;29;20141;-78
2021/10/24 11:22:52;;;;;;;1.88;1.75;;;;;;;25.77;25.03;97531.44;4954376;29;20047;-78
2021/10/24 11:25:42;;;;;;;3.33;2.42;;;;;;;26.35;23.22;97520.03;4954497;29;20122;-79
2021/10/24 11:28:18;;;;;;;3.22;2.05;;;;;;;26.56;22.32;97521.75;4954374;28;20055;-77
2021/10/24 11:31:01;;;;;;;3.17;2.40;;;;;;;26.44;22.31;97519.28;4954365;29;20047;-77
2021/10/24 11:33:43;;;;;;;3.80;2.33;;;;;;;26.28;22.85;97515.75;4954772;29;20087;-77
2021/10/24 11:36:10;;;;;;;3.65;2.55;;;;;;;26.23;22.87;97513.03;4954873;29;20047;-77
2021/10/24 11:38:38;;;;;;;3.85;2.20;;;;;;;26.01;22.76;97515.06;4954597;28;20058;-77
2021/10/24 11:41:18;;;;;;;7.22;2.67;;;;;;;25.86;23.41;97513.84;4974214;28;20640;-79
2021/10/24 11:43:45;;;;;;;1.90;1.80;;;;;;;25.26;24.49;97515.03;4974155;28;20050;-76
2021/10/24 11:46:13;;;;;;;6.30;2.58;;;;;;;25.14;24.69;97511.66;4973552;28;20051;-77
2021/10/24 11:48:41;;;;;;;3.63;2.70;;;;;;;24.60;24.65;97507.94;4974145;28;20054;-78
2021/10/24 11:51:10;;;;;;;2.53;2.22;;;;;;;23.90;25.26;97497.94;4973160;28;20046;-76